createdAt,value
2023-01-19T00:00:05.335Z,92.31
2023-01-19T00:01:06.914Z,92.18
2023-01-19T00:02:08.584Z,92.02
2023-01-19T00:03:16.033Z,92.19
2023-01-19T00:04:17.786Z,92.20
2023-01-19T00:05:19.393Z,92.12
2023-01-19T00:06:21.172Z,92.02
2023-01-19T00:07:22.834Z,91.78
2023-01-19T00:08:24.437Z,91.95
2023-01-19T00:09:26.020Z,91.89
2023-01-19T00:10:27.653Z,91.72
2023-01-19T00:11:29.310Z,91.73
2023-01-19T00:12:30.971Z,91.70
2023-01-19T00:13:32.702Z,91.36
2023-01-19T00:14:34.303Z,91.42
2023-01-19T00:15:36.293Z,91.27
2023-01-19T00:16:38.080Z,91.21
2023-01-19T00:17:41.179Z,91.33
2023-01-19T00:18:43.366Z,91.58
2023-01-19T00:19:45.027Z,91.37
2023-01-19T00:20:46.861Z,91.05
2023-01-19T00:21:48.470Z,91.19
2023-01-19T00:22:51.002Z,91.19
2023-01-19T00:23:52.908Z,91.13
2023-01-19T00:24:54.568Z,91.17
2023-01-19T00:25:56.208Z,91.02
2023-01-19T00:26:57.793Z,90.93
2023-01-19T00:28:01.530Z,91.09
2023-01-19T00:29:04.787Z,90.78
2023-01-19T00:30:07.124Z,90.88
2023-01-19T00:31:08.855Z,90.99
2023-01-19T00:32:10.505Z,91.22
2023-01-19T00:33:14.602Z,91.13
2023-01-19T00:34:16.277Z,91.05
2023-01-19T00:35:17.873Z,91.15
2023-01-19T00:36:19.810Z,91.03
2023-01-19T00:37:21.683Z,91.21
2023-01-19T00:38:23.337Z,91.29
2023-01-19T00:39:24.916Z,91.08
2023-01-19T00:40:26.550Z,91.03
2023-01-19T00:41:46.827Z,91.18
2023-01-19T00:42:48.679Z,91.20
2023-01-19T00:43:50.269Z,91.19
2023-01-19T00:44:51.846Z,91.66
2023-01-19T00:45:53.599Z,91.50
2023-01-19T00:46:55.294Z,91.56
2023-01-19T00:47:57.367Z,91.58
2023-01-19T00:48:59.114Z,91.58
2023-01-19T00:50:00.773Z,91.52
2023-01-19T00:51:02.355Z,91.53
2023-01-19T00:52:04.211Z,91.40
2023-01-19T00:53:05.885Z,91.42
2023-01-19T00:54:10.375Z,91.41
2023-01-19T00:55:13.772Z,91.31
2023-01-19T00:56:15.364Z,91.09
2023-01-19T00:57:17.274Z,90.98
2023-01-19T00:58:18.871Z,90.72
2023-01-19T00:59:20.502Z,90.76
2023-01-19T01:00:22.323Z,90.78
2023-01-19T01:01:45.591Z,90.77
2023-01-19T01:02:45.918Z,90.54
2023-01-19T01:03:47.661Z,90.90
2023-01-19T01:04:54.789Z,90.90
2023-01-19T01:05:56.430Z,91.15
2023-01-19T01:06:58.033Z,90.64
2023-01-19T01:07:59.766Z,90.87
2023-01-19T01:09:11.798Z,90.92
2023-01-19T01:10:21.200Z,90.92
2023-01-19T01:11:22.795Z,90.93
2023-01-19T01:12:24.481Z,90.87
2023-01-19T01:13:28.001Z,90.86
2023-01-19T01:14:29.888Z,90.77
2023-01-19T01:15:31.780Z,90.80
2023-01-19T01:16:33.688Z,90.86
2023-01-19T01:17:35.381Z,90.70
2023-01-19T01:18:37.031Z,90.70
2023-01-19T01:19:38.666Z,90.47
2023-01-19T01:20:40.306Z,90.64
2023-01-19T01:21:41.998Z,90.32
2023-01-19T01:22:45.551Z,90.37
2023-01-19T01:23:47.185Z,90.48
2023-01-19T01:24:48.762Z,90.50
2023-01-19T01:25:50.361Z,90.47
2023-01-19T01:26:51.966Z,90.43
2023-01-19T01:27:53.927Z,90.17
2023-01-19T01:28:55.657Z,90.10
2023-01-19T01:29:57.264Z,90.14
2023-01-19T01:30:58.960Z,90.11
2023-01-19T01:32:00.559Z,90.27
2023-01-19T01:33:02.832Z,90.43
2023-01-19T01:34:04.719Z,90.56
2023-01-19T01:35:06.849Z,90.52
2023-01-19T01:36:09.325Z,90.46
2023-01-19T01:37:11.471Z,90.40
2023-01-19T01:38:13.189Z,90.31
2023-01-19T01:39:14.857Z,90.40
2023-01-19T01:40:17.722Z,90.35
2023-01-19T01:41:20.608Z,90.68
2023-01-19T01:42:28.295Z,90.95
2023-01-19T01:43:55.008Z,91.13
2023-01-19T01:44:58.328Z,90.96
2023-01-19T01:46:00.022Z,90.85
2023-01-19T01:47:01.691Z,91.16
2023-01-19T01:48:05.421Z,90.54
2023-01-19T01:49:16.186Z,90.46
2023-01-19T01:50:29.948Z,90.54
2023-01-19T01:51:34.893Z,90.71
2023-01-19T01:52:39.006Z,90.42
2023-01-19T01:53:40.609Z,90.53
2023-01-19T01:54:42.265Z,90.62
2023-01-19T01:55:46.539Z,90.58
2023-01-19T01:56:49.480Z,90.43
2023-01-19T01:57:53.479Z,90.66
2023-01-19T01:58:55.138Z,90.77
2023-01-19T01:59:57.027Z,90.76
2023-01-19T02:01:17.367Z,91.03
2023-01-19T02:02:41.803Z,90.82
2023-01-19T02:03:43.401Z,91.00
2023-01-19T02:04:47.858Z,91.02
2023-01-19T02:05:49.465Z,90.92
2023-01-19T02:07:09.613Z,90.83
2023-01-19T02:08:58.236Z,90.91
2023-01-19T02:10:18.155Z,91.10
2023-01-19T02:11:38.388Z,91.25
2023-01-19T02:12:58.738Z,90.85
2023-01-19T02:14:00.536Z,90.00
2023-01-19T02:15:02.176Z,90.17
2023-01-19T02:16:07.153Z,90.55
2023-01-19T02:17:08.743Z,90.43
2023-01-19T02:18:10.897Z,90.41
2023-01-19T02:19:31.259Z,90.50
2023-01-19T02:20:32.903Z,90.57
2023-01-19T02:21:54.499Z,89.83
2023-01-19T02:22:56.106Z,89.98
2023-01-19T02:23:58.867Z,89.79
2023-01-19T02:25:00.836Z,90.17
2023-01-19T02:26:02.481Z,89.92
2023-01-19T02:27:04.127Z,90.26
2023-01-19T02:28:05.852Z,90.32
2023-01-19T02:29:08.964Z,90.30
2023-01-19T02:30:11.041Z,90.07
2023-01-19T02:31:12.803Z,90.34
2023-01-19T02:32:14.444Z,90.34
2023-01-19T02:33:16.033Z,90.08
2023-01-19T02:34:19.213Z,90.01
2023-01-19T02:35:20.808Z,90.01
2023-01-19T02:36:37.222Z,90.06
2023-01-19T02:37:40.240Z,90.28
2023-01-19T02:38:41.895Z,90.12
2023-01-19T02:39:47.549Z,90.25
2023-01-19T02:40:49.153Z,90.27
2023-01-19T02:41:59.952Z,90.43
2023-01-19T02:43:02.059Z,90.53
2023-01-19T02:44:03.962Z,90.48
2023-01-19T02:45:06.991Z,90.70
2023-01-19T02:46:08.882Z,90.56
2023-01-19T02:47:10.580Z,90.57
2023-01-19T02:48:12.257Z,90.44
2023-01-19T02:49:14.195Z,90.42
2023-01-19T02:50:57.534Z,90.27
2023-01-19T02:51:59.226Z,91.05
2023-01-19T02:53:11.712Z,90.71
2023-01-19T02:54:20.357Z,90.63
2023-01-19T02:55:22.422Z,90.24
2023-01-19T02:56:40.241Z,90.40
2023-01-19T02:58:07.183Z,89.88
2023-01-19T02:59:23.372Z,90.20
2023-01-19T03:00:52.773Z,89.80
2023-01-19T03:02:19.269Z,89.92
2023-01-19T03:03:30.781Z,89.31
2023-01-19T03:04:38.346Z,88.96
2023-01-19T03:05:54.895Z,89.11
2023-01-19T03:07:20.945Z,89.25
2023-01-19T03:08:42.818Z,89.01
2023-01-19T03:09:47.781Z,89.22
2023-01-19T03:11:03.639Z,89.57
2023-01-19T03:12:29.306Z,89.75
2023-01-19T03:13:50.381Z,89.57
2023-01-19T03:14:52.552Z,89.30
2023-01-19T03:16:00.478Z,89.31
2023-01-19T03:17:02.961Z,89.28
2023-01-19T03:18:05.582Z,89.41
2023-01-19T03:19:24.476Z,89.95
2023-01-19T03:20:28.834Z,89.87
2023-01-19T03:21:30.453Z,89.55
2023-01-19T03:22:32.052Z,90.22
2023-01-19T03:23:34.943Z,90.11
2023-01-19T03:24:42.121Z,90.18
2023-01-19T03:25:44.584Z,90.02
2023-01-19T03:26:49.518Z,90.31
2023-01-19T03:27:51.623Z,90.51
2023-01-19T03:28:53.214Z,90.51
2023-01-19T03:29:59.566Z,90.52
2023-01-19T03:31:07.235Z,90.71
2023-01-19T03:32:11.612Z,90.99
2023-01-19T03:33:27.472Z,91.77
2023-01-19T03:34:29.157Z,91.68
2023-01-19T03:35:32.167Z,91.89
2023-01-19T03:36:40.322Z,91.75
2023-01-19T03:37:43.519Z,91.85
2023-01-19T03:38:45.128Z,91.95
2023-01-19T03:39:46.763Z,91.61
2023-01-19T03:40:48.493Z,91.29
2023-01-19T03:41:52.297Z,91.63
2023-01-19T03:42:53.903Z,91.63
2023-01-19T03:43:55.624Z,91.69
2023-01-19T03:44:57.374Z,91.46
2023-01-19T03:45:59.015Z,91.48
2023-01-19T03:47:00.729Z,91.47
2023-01-19T03:48:05.460Z,91.49
2023-01-19T03:49:07.799Z,91.13
2023-01-19T03:50:15.122Z,91.24
2023-01-19T03:51:19.303Z,91.04
2023-01-19T03:52:33.836Z,91.58
2023-01-19T03:53:35.503Z,91.20
2023-01-19T03:54:37.257Z,91.44
2023-01-19T03:55:40.731Z,91.45
2023-01-19T03:56:44.956Z,91.58
2023-01-19T03:57:49.090Z,91.50
2023-01-19T03:58:50.928Z,91.22
2023-01-19T03:59:53.476Z,91.69
2023-01-19T04:00:55.073Z,91.95
2023-01-19T04:01:56.827Z,92.17
2023-01-19T04:02:58.992Z,92.10
2023-01-19T04:04:01.108Z,91.94
2023-01-19T04:05:02.745Z,91.52
2023-01-19T04:06:04.628Z,91.66
2023-01-19T04:07:06.940Z,91.69
2023-01-19T04:08:08.566Z,91.93
2023-01-19T04:09:10.174Z,91.80
2023-01-19T04:10:12.900Z,91.80
2023-01-19T04:11:14.583Z,91.68
2023-01-19T04:12:16.276Z,91.95
2023-01-19T04:13:17.882Z,91.50
2023-01-19T04:14:19.580Z,91.47
2023-01-19T04:15:21.214Z,91.72
2023-01-19T04:16:25.694Z,91.48
2023-01-19T04:17:27.274Z,92.02
2023-01-19T04:18:29.485Z,91.21
2023-01-19T04:19:33.714Z,91.29
2023-01-19T04:20:35.311Z,91.13
2023-01-19T04:21:36.930Z,91.30
2023-01-19T04:22:41.398Z,91.54
2023-01-19T04:23:46.129Z,91.43
2023-01-19T04:24:47.875Z,91.83
2023-01-19T04:25:49.521Z,91.45
2023-01-19T04:26:53.420Z,91.57
2023-01-19T04:27:55.305Z,91.85
2023-01-19T04:28:56.907Z,91.93
2023-01-19T04:30:03.879Z,92.03
2023-01-19T04:31:06.159Z,92.18
2023-01-19T04:32:09.146Z,91.85
2023-01-19T04:33:10.751Z,91.94
2023-01-19T04:34:12.345Z,91.91
2023-01-19T04:35:17.065Z,92.13
2023-01-19T04:36:18.662Z,92.59
2023-01-19T04:37:20.322Z,92.28
2023-01-19T04:38:27.523Z,92.44
2023-01-19T04:39:29.166Z,92.50
2023-01-19T04:40:30.886Z,92.25
2023-01-19T04:41:35.421Z,92.38
2023-01-19T04:42:39.334Z,92.40
2023-01-19T04:43:40.996Z,92.72
2023-01-19T04:44:42.777Z,92.70
2023-01-19T04:45:44.880Z,92.81
2023-01-19T04:46:46.632Z,92.91
2023-01-19T04:47:48.485Z,92.49
2023-01-19T04:48:50.303Z,92.33
2023-01-19T04:49:51.937Z,92.70
2023-01-19T04:50:53.969Z,92.46
2023-01-19T04:51:55.649Z,92.21
2023-01-19T04:53:02.176Z,92.15
2023-01-19T04:54:04.146Z,92.25
2023-01-19T04:55:06.438Z,91.84
2023-01-19T04:56:08.039Z,92.13
2023-01-19T04:57:09.697Z,91.65
2023-01-19T04:58:11.292Z,91.55
2023-01-19T04:59:13.110Z,91.80
2023-01-19T05:00:15.191Z,91.91
2023-01-19T05:01:16.922Z,92.28
2023-01-19T05:02:25.965Z,92.26
2023-01-19T05:03:27.638Z,92.17
2023-01-19T05:04:31.541Z,92.29
2023-01-19T05:05:33.291Z,92.09
2023-01-19T05:06:38.025Z,92.12
2023-01-19T05:07:39.707Z,91.98
2023-01-19T05:08:45.484Z,92.01
2023-01-19T05:09:47.239Z,91.83
2023-01-19T05:10:48.828Z,91.84
2023-01-19T05:11:50.486Z,92.01
2023-01-19T05:12:52.055Z,91.74
2023-01-19T05:13:53.708Z,91.96
2023-01-19T05:14:55.335Z,92.13
2023-01-19T05:15:56.962Z,92.09
2023-01-19T05:17:03.251Z,92.01
2023-01-19T05:18:07.529Z,91.97
2023-01-19T05:19:09.236Z,92.17
2023-01-19T05:20:13.313Z,91.95
2023-01-19T05:21:15.954Z,91.98
2023-01-19T05:22:17.652Z,92.05
2023-01-19T05:23:19.314Z,91.74
2023-01-19T05:24:21.002Z,91.83
2023-01-19T05:25:22.676Z,91.67
2023-01-19T05:26:24.255Z,91.72
2023-01-19T05:27:25.869Z,91.85
2023-01-19T05:28:31.214Z,91.39
2023-01-19T05:29:32.981Z,91.87
2023-01-19T05:30:35.017Z,92.00
2023-01-19T05:31:37.374Z,91.99
2023-01-19T05:32:39.083Z,92.26
2023-01-19T05:33:41.235Z,91.97
2023-01-19T05:34:42.847Z,91.91
2023-01-19T05:35:44.503Z,91.99
2023-01-19T05:36:46.164Z,91.45
2023-01-19T05:37:47.770Z,91.52
2023-01-19T05:38:49.379Z,91.46
2023-01-19T05:39:51.076Z,91.70
2023-01-19T05:40:57.946Z,91.84
2023-01-19T05:41:59.615Z,92.37
2023-01-19T05:43:02.707Z,91.95
2023-01-19T05:44:04.563Z,92.08
2023-01-19T05:45:09.555Z,91.91
2023-01-19T05:46:13.821Z,92.11
2023-01-19T05:47:15.413Z,92.02
2023-01-19T05:48:17.844Z,92.34
2023-01-19T05:49:19.641Z,92.37
2023-01-19T05:50:24.024Z,92.52
2023-01-19T05:51:25.703Z,92.40
2023-01-19T05:52:27.279Z,92.49
2023-01-19T05:53:29.029Z,92.54
2023-01-19T05:54:33.264Z,92.42
2023-01-19T05:55:34.935Z,92.47
2023-01-19T05:56:36.578Z,92.29
2023-01-19T05:57:38.319Z,92.40
2023-01-19T05:58:40.124Z,92.70
2023-01-19T05:59:41.715Z,92.51
2023-01-19T06:00:43.315Z,92.88
2023-01-19T06:01:44.956Z,92.65
2023-01-19T06:02:49.447Z,92.64
2023-01-19T06:03:51.178Z,92.75
2023-01-19T06:04:52.771Z,92.46
2023-01-19T06:05:59.557Z,92.59
2023-01-19T06:07:02.215Z,92.97
2023-01-19T06:08:03.901Z,92.61
2023-01-19T06:09:05.619Z,92.93
2023-01-19T06:10:07.892Z,92.86
2023-01-19T06:11:09.579Z,92.64
2023-01-19T06:12:11.198Z,92.40
2023-01-19T06:13:12.908Z,92.63
2023-01-19T06:14:14.564Z,92.76
2023-01-19T06:15:16.175Z,92.75
2023-01-19T06:16:17.869Z,92.56
2023-01-19T06:17:20.413Z,92.47
2023-01-19T06:18:22.031Z,92.79
2023-01-19T06:19:23.630Z,93.01
2023-01-19T06:20:25.236Z,92.80
2023-01-19T06:21:26.893Z,93.14
2023-01-19T06:22:33.878Z,93.05
2023-01-19T06:23:35.697Z,93.06
2023-01-19T06:24:43.378Z,93.19
2023-01-19T06:25:45.408Z,93.11
2023-01-19T06:26:48.116Z,92.79
2023-01-19T06:27:52.695Z,92.72
2023-01-19T06:28:54.371Z,93.06
2023-01-19T06:29:56.006Z,93.05
2023-01-19T06:30:57.837Z,92.98
2023-01-19T06:32:01.075Z,92.82
2023-01-19T06:33:04.182Z,92.68
2023-01-19T06:34:05.972Z,92.52
2023-01-19T06:35:13.048Z,92.53
2023-01-19T06:36:14.661Z,92.83
2023-01-19T06:37:16.851Z,92.73
2023-01-19T06:38:21.078Z,92.55
2023-01-19T06:39:22.744Z,92.45
2023-01-19T06:40:24.417Z,92.59
2023-01-19T06:41:27.571Z,92.54
2023-01-19T06:42:30.346Z,92.25
2023-01-19T06:43:32.054Z,92.06
2023-01-19T06:44:33.741Z,92.13
2023-01-19T06:45:35.454Z,92.45
2023-01-19T06:46:39.453Z,92.40
2023-01-19T06:47:44.069Z,92.22
2023-01-19T06:48:48.125Z,92.45
2023-01-19T06:49:52.694Z,92.38
2023-01-19T06:50:56.211Z,92.01
2023-01-19T06:51:59.771Z,91.90
2023-01-19T06:53:01.858Z,92.07
2023-01-19T06:54:03.682Z,91.93
2023-01-19T06:55:05.868Z,91.96
2023-01-19T06:56:09.383Z,92.22
2023-01-19T06:57:15.506Z,91.85
2023-01-19T06:58:19.594Z,91.75
2023-01-19T06:59:26.604Z,91.72
2023-01-19T07:00:30.879Z,91.39
2023-01-19T07:01:35.758Z,91.23
2023-01-19T07:02:38.257Z,91.47
2023-01-19T07:03:42.248Z,91.15
2023-01-19T07:04:47.002Z,91.19
2023-01-19T07:05:54.603Z,90.95
2023-01-19T07:06:56.256Z,90.91
2023-01-19T07:07:57.898Z,90.92
2023-01-19T07:09:00.373Z,91.04
2023-01-19T07:10:01.977Z,90.94
2023-01-19T07:11:26.318Z,90.88
2023-01-19T07:12:32.781Z,91.02
2023-01-19T07:13:34.957Z,90.96
2023-01-19T07:14:36.762Z,90.94
2023-01-19T07:15:38.444Z,90.97
2023-01-19T07:16:40.121Z,90.73
2023-01-19T07:17:42.267Z,90.51
2023-01-19T07:18:43.952Z,90.52
2023-01-19T07:19:46.364Z,91.00
2023-01-19T07:20:49.303Z,90.29
2023-01-19T07:21:50.895Z,90.71
2023-01-19T07:23:00.214Z,90.38
2023-01-19T07:24:02.095Z,90.34
2023-01-19T07:25:04.841Z,90.20
2023-01-19T07:26:06.560Z,90.19
2023-01-19T07:27:08.330Z,90.30
2023-01-19T07:28:09.997Z,89.90
2023-01-19T07:29:11.653Z,89.82
2023-01-19T07:30:16.151Z,89.64
2023-01-19T07:31:18.115Z,89.93
2023-01-19T07:32:19.841Z,89.55
2023-01-19T07:33:22.519Z,89.58
2023-01-19T07:34:24.130Z,89.65
2023-01-19T07:35:25.869Z,89.55
2023-01-19T07:36:27.481Z,89.49
2023-01-19T07:37:29.138Z,89.26
2023-01-19T07:38:30.810Z,89.30
2023-01-19T07:39:32.452Z,89.39
2023-01-19T07:40:34.454Z,89.27
2023-01-19T07:41:36.080Z,89.06
2023-01-19T07:42:38.088Z,89.24
2023-01-19T07:43:39.799Z,89.45
2023-01-19T07:44:41.394Z,90.08
2023-01-19T07:45:43.292Z,90.11
2023-01-19T07:46:45.181Z,89.81
2023-01-19T07:47:48.947Z,89.57
2023-01-19T07:48:50.538Z,89.59
2023-01-19T07:49:52.745Z,89.51
2023-01-19T07:50:54.346Z,90.01
2023-01-19T07:51:56.508Z,90.02
2023-01-19T07:52:58.509Z,89.74
2023-01-19T07:54:00.349Z,89.54
2023-01-19T07:55:02.075Z,89.50
2023-01-19T07:56:06.176Z,90.02
2023-01-19T07:57:07.783Z,89.24
2023-01-19T07:58:09.415Z,89.32
2023-01-19T07:59:11.232Z,89.22
2023-01-19T08:00:14.536Z,89.08
2023-01-19T08:01:16.208Z,89.24
2023-01-19T08:02:17.987Z,89.24
2023-01-19T08:03:19.689Z,89.08
2023-01-19T08:04:21.312Z,89.02
2023-01-19T08:05:23.609Z,89.32
2023-01-19T08:06:30.204Z,89.23
2023-01-19T08:07:33.439Z,89.30
2023-01-19T08:08:35.173Z,89.41
2023-01-19T08:09:36.776Z,89.15
2023-01-19T08:10:38.435Z,88.96
2023-01-19T08:11:40.541Z,88.95
2023-01-19T08:12:42.663Z,89.31
2023-01-19T08:13:44.426Z,89.17
2023-01-19T08:14:46.111Z,89.01
2023-01-19T08:15:51.732Z,89.42
2023-01-19T08:16:53.511Z,89.32
2023-01-19T08:17:58.114Z,89.70
2023-01-19T08:18:59.825Z,89.67
2023-01-19T08:20:01.563Z,89.27
2023-01-19T08:21:03.299Z,89.37
2023-01-19T08:22:06.072Z,89.18
2023-01-19T08:23:07.656Z,89.23
2023-01-19T08:24:11.474Z,89.15
2023-01-19T08:25:13.115Z,89.12
2023-01-19T08:26:41.005Z,89.17
2023-01-19T08:27:42.612Z,89.48
2023-01-19T08:28:44.212Z,89.52
2023-01-19T08:29:46.241Z,89.49
2023-01-19T08:30:54.239Z,89.11
2023-01-19T08:31:57.517Z,89.28
2023-01-19T08:33:04.366Z,89.53
2023-01-19T08:34:06.147Z,89.39
2023-01-19T08:35:08.238Z,89.57
2023-01-19T08:36:09.922Z,89.30
2023-01-19T08:37:11.556Z,89.56
2023-01-19T08:38:13.218Z,89.88
2023-01-19T08:39:14.842Z,89.93
2023-01-19T08:40:16.709Z,89.77
2023-01-19T08:41:18.454Z,89.86
2023-01-19T08:42:20.050Z,89.58
2023-01-19T08:43:21.691Z,89.96
2023-01-19T08:44:23.315Z,89.59
2023-01-19T08:45:24.998Z,89.72
2023-01-19T08:46:27.378Z,89.44
2023-01-19T08:47:29.716Z,89.28
2023-01-19T08:48:31.481Z,89.15
2023-01-19T08:49:33.222Z,89.89
2023-01-19T08:50:34.852Z,90.10
2023-01-19T08:51:36.574Z,90.16
2023-01-19T08:52:38.168Z,89.86
2023-01-19T08:53:39.890Z,90.17
2023-01-19T08:54:41.718Z,89.56
2023-01-19T08:55:43.407Z,89.79
2023-01-19T08:56:45.009Z,89.99
2023-01-19T08:57:46.686Z,90.15
2023-01-19T08:58:59.553Z,89.82
2023-01-19T09:00:11.154Z,89.88
2023-01-19T09:01:22.254Z,89.96
2023-01-19T09:02:24.069Z,89.35
2023-01-19T09:03:25.841Z,90.21
2023-01-19T09:04:27.522Z,89.37
2023-01-19T09:05:29.612Z,89.51
2023-01-19T09:06:31.291Z,89.45
2023-01-19T09:07:35.392Z,89.57
2023-01-19T09:08:37.385Z,89.30
2023-01-19T09:09:44.049Z,89.58
2023-01-19T09:10:49.992Z,89.39
2023-01-19T09:11:51.622Z,88.99
2023-01-19T09:12:53.556Z,89.53
2023-01-19T09:13:55.211Z,89.47
2023-01-19T09:14:56.863Z,89.33
2023-01-19T09:15:58.694Z,89.70
2023-01-19T09:17:00.421Z,89.62
2023-01-19T09:18:02.922Z,89.21
2023-01-19T09:19:04.895Z,89.19
2023-01-19T09:20:06.947Z,89.58
2023-01-19T09:21:09.448Z,89.53
2023-01-19T09:22:11.050Z,88.95
2023-01-19T09:23:13.892Z,88.78
2023-01-19T09:24:15.515Z,88.99
2023-01-19T09:25:17.174Z,88.80
2023-01-19T09:26:19.193Z,88.71
2023-01-19T09:27:21.109Z,88.92
2023-01-19T09:28:22.714Z,89.47
2023-01-19T09:29:24.396Z,89.00
2023-01-19T09:30:27.836Z,89.16
2023-01-19T09:31:29.642Z,89.18
2023-01-19T09:32:31.408Z,89.04
2023-01-19T09:33:33.190Z,88.94
2023-01-19T09:34:34.867Z,88.93
2023-01-19T09:35:37.011Z,89.38
2023-01-19T09:36:39.981Z,89.45
2023-01-19T09:37:41.656Z,89.68
2023-01-19T09:38:43.674Z,89.60
2023-01-19T09:39:45.397Z,89.25
2023-01-19T09:40:52.180Z,89.30
2023-01-19T09:42:03.220Z,89.83
2023-01-19T09:43:25.061Z,89.73
2023-01-19T09:44:32.346Z,90.09
2023-01-19T09:45:49.812Z,90.15
2023-01-19T09:46:51.486Z,89.44
2023-01-19T09:47:54.128Z,89.37
2023-01-19T09:48:57.817Z,89.39
2023-01-19T09:50:05.571Z,89.46
2023-01-19T09:51:08.631Z,90.00
2023-01-19T09:52:13.751Z,90.32
2023-01-19T09:53:33.890Z,90.16
2023-01-19T09:54:41.092Z,90.68
2023-01-19T09:55:43.356Z,90.68
2023-01-19T09:56:46.340Z,90.55
2023-01-19T09:57:48.033Z,90.05
2023-01-19T09:58:51.010Z,90.15
2023-01-19T09:59:57.969Z,90.15
2023-01-19T10:01:04.875Z,90.17
2023-01-19T10:02:19.878Z,90.34
2023-01-19T10:03:21.522Z,89.95
2023-01-19T10:04:28.738Z,90.14
2023-01-19T10:05:50.778Z,89.93
2023-01-19T10:06:53.909Z,89.90
2023-01-19T10:08:08.611Z,89.43
2023-01-19T10:09:33.115Z,89.55
2023-01-19T10:10:35.852Z,89.70
2023-01-19T10:11:52.760Z,89.50
2023-01-19T10:13:13.006Z,89.91
2023-01-19T10:14:50.032Z,89.97
2023-01-19T10:16:19.621Z,89.66
2023-01-19T10:17:56.454Z,89.42
2023-01-19T10:19:01.436Z,89.61
2023-01-19T10:20:03.314Z,89.41
2023-01-19T10:21:13.746Z,89.87
2023-01-19T10:22:25.672Z,89.80
2023-01-19T10:23:50.296Z,89.52
2023-01-19T10:24:54.938Z,89.86
2023-01-19T10:25:56.642Z,89.65
2023-01-19T10:26:58.378Z,90.17
2023-01-19T10:28:00.008Z,90.27
2023-01-19T10:29:04.414Z,90.45
2023-01-19T10:30:07.485Z,90.00
2023-01-19T10:31:10.212Z,89.62
2023-01-19T10:32:35.920Z,89.63
2023-01-19T10:33:38.105Z,89.68
2023-01-19T10:34:40.498Z,89.85
2023-01-19T10:35:42.940Z,89.59
2023-01-19T10:36:45.642Z,89.61
2023-01-19T10:37:47.277Z,89.59
2023-01-19T10:38:48.900Z,89.60
2023-01-19T10:39:55.771Z,90.10
2023-01-19T10:41:04.933Z,90.35
2023-01-19T10:42:06.655Z,90.00
2023-01-19T10:43:43.308Z,90.20
2023-01-19T10:44:47.716Z,90.01
2023-01-19T10:45:50.457Z,89.53
2023-01-19T10:46:52.697Z,89.86
2023-01-19T10:47:55.008Z,90.01
2023-01-19T10:48:56.618Z,90.26
2023-01-19T10:49:58.354Z,89.90
2023-01-19T10:51:03.782Z,89.71
2023-01-19T10:52:06.677Z,89.88
2023-01-19T10:53:20.518Z,89.89
2023-01-19T10:54:22.339Z,89.67
2023-01-19T10:55:31.003Z,89.35
2023-01-19T10:56:36.578Z,89.59
2023-01-19T10:57:38.863Z,89.36
2023-01-19T10:58:40.716Z,89.61
2023-01-19T10:59:45.256Z,89.76
2023-01-19T11:00:47.071Z,89.85
2023-01-19T11:02:17.723Z,90.17
2023-01-19T11:03:23.012Z,90.24
2023-01-19T11:04:29.425Z,89.77
2023-01-19T11:05:33.093Z,89.71
2023-01-19T11:06:35.810Z,89.57
2023-01-19T11:07:37.425Z,89.65
2023-01-19T11:08:39.045Z,89.53
2023-01-19T11:09:43.684Z,89.85
2023-01-19T11:10:49.158Z,89.81
2023-01-19T11:11:51.789Z,89.53
2023-01-19T11:12:58.547Z,89.57
2023-01-19T11:14:08.897Z,89.43
2023-01-19T11:15:20.975Z,88.77
2023-01-19T11:16:27.405Z,89.25
2023-01-19T11:17:29.127Z,88.90
2023-01-19T11:18:35.991Z,88.43
2023-01-19T11:19:37.656Z,89.10
2023-01-19T11:20:50.031Z,89.23
2023-01-19T11:21:51.752Z,88.41
2023-01-19T11:23:06.283Z,89.25
2023-01-19T11:24:09.667Z,89.76
2023-01-19T11:25:21.887Z,89.02
2023-01-19T11:26:32.425Z,89.15
2023-01-19T11:27:35.072Z,88.99
2023-01-19T11:28:37.964Z,89.16
2023-01-19T11:29:39.627Z,88.93
2023-01-19T11:31:01.435Z,89.02
2023-01-19T11:32:17.695Z,88.73
2023-01-19T11:33:24.607Z,89.07
2023-01-19T11:34:34.028Z,88.38
2023-01-19T11:35:40.149Z,89.22
2023-01-19T11:36:41.752Z,89.25
2023-01-19T11:37:43.413Z,89.13
2023-01-19T11:38:46.269Z,88.59
2023-01-19T11:39:58.464Z,88.52
2023-01-19T11:41:00.936Z,88.34
2023-01-19T11:42:03.541Z,88.05
2023-01-19T11:43:05.213Z,88.48
2023-01-19T11:44:20.437Z,88.48
2023-01-19T11:45:22.062Z,88.75
2023-01-19T11:46:25.268Z,88.20
2023-01-19T11:47:47.229Z,88.68
2023-01-19T11:49:01.806Z,88.50
2023-01-19T11:50:07.120Z,88.42
2023-01-19T11:51:13.510Z,88.25
2023-01-19T11:52:33.992Z,87.99
2023-01-19T11:53:35.692Z,89.07
2023-01-19T11:54:42.748Z,88.61
2023-01-19T11:56:16.155Z,88.58
2023-01-19T11:57:17.771Z,88.31
2023-01-19T11:58:19.676Z,88.85
2023-01-19T11:59:21.401Z,88.58
2023-01-19T12:00:59.157Z,88.87
2023-01-19T12:02:00.952Z,88.97
2023-01-19T12:03:23.416Z,88.43
2023-01-19T12:04:33.576Z,88.95
2023-01-19T12:05:35.319Z,88.99
2023-01-19T12:06:41.902Z,88.91
2023-01-19T12:07:43.817Z,89.02
2023-01-19T12:08:46.834Z,89.11
2023-01-19T12:09:51.668Z,89.19
2023-01-19T12:10:54.162Z,88.69
2023-01-19T12:12:24.356Z,88.88
2023-01-19T12:13:26.817Z,89.29
2023-01-19T12:14:40.291Z,88.87
2023-01-19T12:15:42.825Z,88.61
2023-01-19T12:16:44.802Z,88.92
2023-01-19T12:17:48.875Z,89.13
2023-01-19T12:19:12.563Z,89.34
2023-01-19T12:20:38.583Z,89.32
2023-01-19T12:21:40.272Z,89.63
2023-01-19T12:22:49.470Z,89.26
2023-01-19T12:24:04.138Z,89.36
2023-01-19T12:25:23.080Z,89.23
2023-01-19T12:26:38.466Z,88.79
2023-01-19T12:27:41.285Z,89.73
2023-01-19T12:28:47.454Z,89.55
2023-01-19T12:29:49.083Z,89.24
2023-01-19T12:30:52.211Z,89.45
2023-01-19T12:32:14.230Z,89.98
2023-01-19T12:33:22.896Z,89.83
2023-01-19T12:34:42.243Z,89.55
2023-01-19T12:36:06.878Z,89.62
2023-01-19T12:37:26.991Z,89.24
2023-01-19T12:38:52.814Z,89.67
2023-01-19T12:39:54.824Z,89.65
2023-01-19T12:41:18.947Z,89.40
2023-01-19T12:42:21.419Z,89.55
2023-01-19T12:43:23.635Z,89.78
2023-01-19T12:44:25.404Z,89.76
2023-01-19T12:45:33.792Z,89.55
2023-01-19T12:46:35.696Z,89.88
2023-01-19T12:47:37.362Z,89.60
2023-01-19T12:48:40.393Z,89.68
2023-01-19T12:49:52.134Z,89.89
2023-01-19T12:50:53.717Z,90.04
2023-01-19T12:52:30.863Z,89.93
2023-01-19T12:53:32.509Z,89.76
2023-01-19T12:54:34.165Z,89.77
2023-01-19T12:55:37.912Z,90.21
2023-01-19T12:56:39.507Z,89.70
2023-01-19T12:57:56.409Z,90.00
2023-01-19T12:58:58.198Z,89.81
2023-01-19T13:00:22.857Z,89.23
2023-01-19T13:01:25.019Z,89.43
2023-01-19T13:02:27.109Z,89.03
2023-01-19T13:03:28.752Z,89.17
2023-01-19T13:04:31.032Z,89.71
2023-01-19T13:05:33.479Z,89.60
2023-01-19T13:06:50.036Z,89.14
2023-01-19T13:08:18.286Z,89.30
2023-01-19T13:09:37.059Z,89.41
2023-01-19T13:10:59.811Z,89.68
2023-01-19T13:12:20.959Z,90.00
2023-01-19T13:13:25.347Z,89.34
2023-01-19T13:14:36.826Z,89.62
2023-01-19T13:15:38.484Z,89.57
2023-01-19T13:16:40.037Z,89.41
2023-01-19T13:17:50.553Z,89.44
2023-01-19T13:19:00.572Z,89.44
2023-01-19T13:20:06.087Z,89.36
2023-01-19T13:21:08.277Z,89.23
2023-01-19T13:22:47.307Z,89.56
2023-01-19T13:23:49.974Z,89.36
2023-01-19T13:25:10.567Z,89.46
2023-01-19T13:26:14.851Z,89.75
2023-01-19T13:27:16.475Z,89.58
2023-01-19T13:28:19.028Z,89.91
2023-01-19T13:29:33.120Z,90.06
2023-01-19T13:30:34.935Z,89.38
2023-01-19T13:31:37.788Z,89.71
2023-01-19T13:32:41.128Z,89.95
2023-01-19T13:33:56.818Z,89.72
2023-01-19T13:34:59.225Z,88.91
2023-01-19T13:36:01.049Z,89.20
2023-01-19T13:37:03.245Z,89.47
2023-01-19T13:38:04.873Z,89.11
2023-01-19T13:39:18.586Z,89.09
2023-01-19T13:40:33.678Z,89.38
2023-01-19T13:41:39.370Z,89.35
2023-01-19T13:42:41.031Z,89.28
2023-01-19T13:43:42.656Z,88.72
2023-01-19T13:44:53.203Z,89.21
2023-01-19T13:45:54.808Z,89.54
2023-01-19T13:46:56.687Z,89.32
2023-01-19T13:47:59.110Z,89.62
2023-01-19T13:49:05.584Z,89.06
2023-01-19T13:50:14.340Z,89.42
2023-01-19T13:51:18.864Z,89.17
2023-01-19T13:52:22.586Z,88.92
2023-01-19T13:53:24.501Z,89.32
2023-01-19T13:54:26.160Z,89.01
2023-01-19T13:55:28.699Z,89.20
2023-01-19T13:56:30.481Z,89.13
2023-01-19T13:57:40.708Z,89.30
2023-01-19T13:58:42.418Z,89.23